sensor_id;sensor_type;location;lat;lon;timestamp;P1;durP1;ratioP1;P2;durP2;ratioP2
16326;SDS011;34812;49.846;9.610;2023-06-19T00:00:02;4.35;;;3.92;;
16326;SDS011;34812;49.846;9.610;2023-06-19T00:05:12;5.82;;;4.07;;
16326;SDS011;34812;49.846;9.610;2023-06-19T00:10:16;4.75;;;4.30;;
16326;SDS011;34812;49.846;9.610;2023-06-19T00:15:18;4.57;;;4.13;;
16326;SDS011;34812;49.846;9.610;2023-06-19T00:20:20;4.50;;;4.07;;
16326;SDS011;34812;49.846;9.610;2023-06-19T00:25:23;5.45;;;4.40;;
16326;SDS011;34812;49.846;9.610;2023-06-19T00:30:25;7.40;;;3.80;;
16326;SDS011;34812;49.846;9.610;2023-06-19T00:35:32;6.72;;;4.32;;
16326;SDS011;34812;49.846;9.610;2023-06-19T00:40:36;4.25;;;3.85;;
16326;SDS011;34812;49.846;9.610;2023-06-19T00:45:38;5.65;;;3.95;;
16326;SDS011;34812;49.846;9.610;2023-06-19T00:50:40;4.68;;;4.10;;
16326;SDS011;34812;49.846;9.610;2023-06-19T00:55:43;6.30;;;4.40;;
16326;SDS011;34812;49.846;9.610;2023-06-19T01:00:46;6.20;;;4.22;;
16326;SDS011;34812;49.846;9.610;2023-06-19T01:05:48;6.00;;;4.38;;
16326;SDS011;34812;49.846;9.610;2023-06-19T01:10:53;5.25;;;4.15;;
16326;SDS011;34812;49.846;9.610;2023-06-19T01:15:56;4.10;;;3.70;;
16326;SDS011;34812;49.846;9.610;2023-06-19T01:21:08;5.10;;;4.35;;
16326;SDS011;34812;49.846;9.610;2023-06-19T01:26:11;4.15;;;3.75;;
16326;SDS011;34812;49.846;9.610;2023-06-19T01:31:15;6.70;;;4.35;;
16326;SDS011;34812;49.846;9.610;2023-06-19T01:36:20;5.07;;;4.00;;
16326;SDS011;34812;49.846;9.610;2023-06-19T01:41:24;6.75;;;4.28;;
16326;SDS011;34812;49.846;9.610;2023-06-19T01:46:26;4.57;;;4.03;;
16326;SDS011;34812;49.846;9.610;2023-06-19T01:51:29;4.78;;;3.97;;
16326;SDS011;34812;49.846;9.610;2023-06-19T01:56:33;5.60;;;4.30;;
16326;SDS011;34812;49.846;9.610;2023-06-19T02:01:35;5.57;;;4.47;;
16326;SDS011;34812;49.846;9.610;2023-06-19T02:06:37;4.63;;;4.22;;
16326;SDS011;34812;49.846;9.610;2023-06-19T02:11:40;4.32;;;3.80;;
16326;SDS011;34812;49.846;9.610;2023-06-19T02:16:43;6.03;;;4.43;;
16326;SDS011;34812;49.846;9.610;2023-06-19T02:21:45;5.88;;;4.72;;
16326;SDS011;34812;49.846;9.610;2023-06-19T02:26:48;4.93;;;4.40;;
16326;SDS011;34812;49.846;9.610;2023-06-19T02:31:50;5.72;;;4.47;;
16326;SDS011;34812;49.846;9.610;2023-06-19T02:36:53;5.07;;;4.22;;
16326;SDS011;34812;49.846;9.610;2023-06-19T02:41:56;4.20;;;3.80;;
16326;SDS011;34812;49.846;9.610;2023-06-19T02:47:02;5.95;;;4.85;;
16326;SDS011;34812;49.846;9.610;2023-06-19T02:52:04;10.23;;;5.20;;
16326;SDS011;34812;49.846;9.610;2023-06-19T02:57:08;6.28;;;4.45;;
16326;SDS011;34812;49.846;9.610;2023-06-19T03:02:10;8.63;;;4.60;;
16326;SDS011;34812;49.846;9.610;2023-06-19T03:07:15;11.15;;;5.53;;
16326;SDS011;34812;49.846;9.610;2023-06-19T03:12:19;8.25;;;4.53;;
16326;SDS011;34812;49.846;9.610;2023-06-19T03:17:21;7.85;;;5.75;;
16326;SDS011;34812;49.846;9.610;2023-06-19T03:22:23;6.88;;;5.60;;
16326;SDS011;34812;49.846;9.610;2023-06-19T03:27:27;6.90;;;5.10;;
16326;SDS011;34812;49.846;9.610;2023-06-19T03:32:30;7.25;;;5.20;;
16326;SDS011;34812;49.846;9.610;2023-06-19T03:37:33;5.93;;;4.70;;
16326;SDS011;34812;49.846;9.610;2023-06-19T03:42:38;5.72;;;4.93;;
16326;SDS011;34812;49.846;9.610;2023-06-19T03:47:40;8.60;;;5.10;;
16326;SDS011;34812;49.846;9.610;2023-06-19T03:52:42;5.97;;;4.85;;
16326;SDS011;34812;49.846;9.610;2023-06-19T03:57:46;7.70;;;5.15;;
16326;SDS011;34812;49.846;9.610;2023-06-19T04:02:49;9.65;;;5.45;;
16326;SDS011;34812;49.846;9.610;2023-06-19T04:07:51;6.95;;;5.45;;
16326;SDS011;34812;49.846;9.610;2023-06-19T04:12:54;8.52;;;5.95;;
16326;SDS011;34812;49.846;9.610;2023-06-19T04:17:56;8.80;;;6.50;;
16326;SDS011;34812;49.846;9.610;2023-06-19T04:23:00;7.85;;;5.43;;
16326;SDS011;34812;49.846;9.610;2023-06-19T04:28:04;7.22;;;5.75;;
16326;SDS011;34812;49.846;9.610;2023-06-19T04:33:06;7.90;;;5.93;;
16326;SDS011;34812;49.846;9.610;2023-06-19T04:38:09;17.38;;;6.82;;
16326;SDS011;34812;49.846;9.610;2023-06-19T04:43:16;9.50;;;5.93;;
16326;SDS011;34812;49.846;9.610;2023-06-19T04:48:18;6.70;;;6.00;;
16326;SDS011;34812;49.846;9.610;2023-06-19T04:53:24;9.35;;;5.82;;
16326;SDS011;34812;49.846;9.610;2023-06-19T04:58:28;5.75;;;5.18;;
16326;SDS011;34812;49.846;9.610;2023-06-19T05:03:30;8.48;;;6.25;;
16326;SDS011;34812;49.846;9.610;2023-06-19T05:08:32;8.52;;;5.43;;
16326;SDS011;34812;49.846;9.610;2023-06-19T05:13:35;6.32;;;5.72;;
16326;SDS011;34812;49.846;9.610;2023-06-19T05:18:37;5.68;;;5.10;;
16326;SDS011;34812;49.846;9.610;2023-06-19T05:23:40;5.65;;;4.95;;
16326;SDS011;34812;49.846;9.610;2023-06-19T05:28:43;6.13;;;5.07;;
16326;SDS011;34812;49.846;9.610;2023-06-19T05:33:45;6.28;;;4.97;;
16326;SDS011;34812;49.846;9.610;2023-06-19T05:38:47;5.35;;;4.85;;
16326;SDS011;34812;49.846;9.610;2023-06-19T05:43:50;5.43;;;4.25;;
16326;SDS011;34812;49.846;9.610;2023-06-19T05:48:53;6.82;;;5.00;;
16326;SDS011;34812;49.846;9.610;2023-06-19T05:53:55;5.95;;;4.78;;
16326;SDS011;34812;49.846;9.610;2023-06-19T05:59:02;5.63;;;4.60;;
16326;SDS011;34812;49.846;9.610;2023-06-19T06:04:04;5.75;;;4.75;;
16326;SDS011;34812;49.846;9.610;2023-06-19T06:09:06;6.18;;;4.80;;
16326;SDS011;34812;49.846;9.610;2023-06-19T06:14:12;6.65;;;4.97;;
16326;SDS011;34812;49.846;9.610;2023-06-19T06:19:14;5.38;;;4.30;;
16326;SDS011;34812;49.846;9.610;2023-06-19T06:24:16;6.50;;;4.40;;
16326;SDS011;34812;49.846;9.610;2023-06-19T06:29:20;6.13;;;4.05;;
16326;SDS011;34812;49.846;9.610;2023-06-19T06:34:22;4.88;;;3.85;;
16326;SDS011;34812;49.846;9.610;2023-06-19T06:39:25;3.88;;;3.25;;
16326;SDS011;34812;49.846;9.610;2023-06-19T06:44:28;3.72;;;3.08;;
16326;SDS011;34812;49.846;9.610;2023-06-19T06:49:30;4.75;;;3.60;;
16326;SDS011;34812;49.846;9.610;2023-06-19T06:54:33;3.85;;;3.20;;
16326;SDS011;34812;49.846;9.610;2023-06-19T06:59:36;3.88;;;3.08;;
16326;SDS011;34812;49.846;9.610;2023-06-19T07:04:38;3.83;;;2.58;;
16326;SDS011;34812;49.846;9.610;2023-06-19T07:09:40;2.70;;;2.45;;
16326;SDS011;34812;49.846;9.610;2023-06-19T07:14:44;3.30;;;3.00;;
16326;SDS011;34812;49.846;9.610;2023-06-19T07:19:46;3.58;;;2.83;;
16326;SDS011;34812;49.846;9.610;2023-06-19T07:24:48;3.42;;;3.00;;
16326;SDS011;34812;49.846;9.610;2023-06-19T07:29:52;3.28;;;2.88;;
16326;SDS011;34812;49.846;9.610;2023-06-19T07:34:54;4.57;;;2.88;;
16326;SDS011;34812;49.846;9.610;2023-06-19T07:39:56;4.20;;;2.67;;
16326;SDS011;34812;49.846;9.610;2023-06-19T07:45:00;2.47;;;2.28;;
16326;SDS011;34812;49.846;9.610;2023-06-19T07:50:02;4.32;;;2.70;;
16326;SDS011;34812;49.846;9.610;2023-06-19T07:55:05;2.92;;;2.60;;
16326;SDS011;34812;49.846;9.610;2023-06-19T08:00:09;3.38;;;2.88;;
16326;SDS011;34812;49.846;9.610;2023-06-19T08:05:12;2.97;;;2.13;;
16326;SDS011;34812;49.846;9.610;2023-06-19T08:10:15;3.00;;;2.38;;
16326;SDS011;34812;49.846;9.610;2023-06-19T08:15:18;3.10;;;2.47;;
16326;SDS011;34812;49.846;9.610;2023-06-19T08:20:20;2.97;;;2.17;;
16326;SDS011;34812;49.846;9.610;2023-06-19T08:25:23;2.75;;;2.53;;
16326;SDS011;34812;49.846;9.610;2023-06-19T08:30:26;2.40;;;2.20;;
16326;SDS011;34812;49.846;9.610;2023-06-19T08:35:28;3.05;;;2.58;;
16326;SDS011;34812;49.846;9.610;2023-06-19T08:40:30;3.00;;;2.33;;
16326;SDS011;34812;49.846;9.610;2023-06-19T08:45:34;2.63;;;2.25;;
16326;SDS011;34812;49.846;9.610;2023-06-19T08:50:37;3.15;;;2.35;;
16326;SDS011;34812;49.846;9.610;2023-06-19T08:55:39;4.15;;;2.50;;
16326;SDS011;34812;49.846;9.610;2023-06-19T09:00:47;2.30;;;2.10;;
16326;SDS011;34812;49.846;9.610;2023-06-19T09:05:49;2.33;;;2.13;;
16326;SDS011;34812;49.846;9.610;2023-06-19T09:10:55;3.03;;;2.30;;
16326;SDS011;34812;49.846;9.610;2023-06-19T09:16:00;2.72;;;2.30;;
16326;SDS011;34812;49.846;9.610;2023-06-19T09:21:02;2.58;;;2.38;;
16326;SDS011;34812;49.846;9.610;2023-06-19T09:26:04;2.40;;;2.20;;
16326;SDS011;34812;49.846;9.610;2023-06-19T09:31:09;2.55;;;2.35;;
16326;SDS011;34812;49.846;9.610;2023-06-19T09:36:12;2.90;;;2.60;;
16326;SDS011;34812;49.846;9.610;2023-06-19T09:41:15;2.50;;;2.30;;
16326;SDS011;34812;49.846;9.610;2023-06-19T09:46:21;3.67;;;2.60;;
16326;SDS011;34812;49.846;9.610;2023-06-19T09:51:29;2.92;;;2.63;;
16326;SDS011;34812;49.846;9.610;2023-06-19T09:56:32;4.50;;;2.55;;
16326;SDS011;34812;49.846;9.610;2023-06-19T10:01:36;3.55;;;2.80;;
16326;SDS011;34812;49.846;9.610;2023-06-19T10:06:45;2.92;;;2.63;;
16326;SDS011;34812;49.846;9.610;2023-06-19T10:11:47;3.35;;;3.00;;
16326;SDS011;34812;49.846;9.610;2023-06-19T10:16:52;3.63;;;2.80;;
16326;SDS011;34812;49.846;9.610;2023-06-19T10:21:54;2.70;;;2.35;;
16326;SDS011;34812;49.846;9.610;2023-06-19T10:26:58;2.90;;;2.70;;
16326;SDS011;34812;49.846;9.610;2023-06-19T10:32:01;2.60;;;2.40;;
16326;SDS011;34812;49.846;9.610;2023-06-19T10:37:04;5.72;;;2.40;;
16326;SDS011;34812;49.846;9.610;2023-06-19T10:42:06;2.65;;;2.45;;
16326;SDS011;34812;49.846;9.610;2023-06-19T10:47:10;2.60;;;2.40;;
16326;SDS011;34812;49.846;9.610;2023-06-19T10:52:13;2.53;;;2.33;;
16326;SDS011;34812;49.846;9.610;2023-06-19T10:57:16;3.20;;;2.90;;
16326;SDS011;34812;49.846;9.610;2023-06-19T11:02:19;4.43;;;2.85;;
16326;SDS011;34812;49.846;9.610;2023-06-19T11:07:22;3.92;;;2.78;;
16326;SDS011;34812;49.846;9.610;2023-06-19T11:12:24;2.45;;;2.20;;
16326;SDS011;34812;49.846;9.610;2023-06-19T11:17:28;3.63;;;3.15;;
16326;SDS011;34812;49.846;9.610;2023-06-19T11:22:37;4.10;;;2.70;;
16326;SDS011;34812;49.846;9.610;2023-06-19T11:27:40;5.68;;;2.90;;
16326;SDS011;34812;49.846;9.610;2023-06-19T11:32:44;3.20;;;2.90;;
16326;SDS011;34812;49.846;9.610;2023-06-19T11:37:48;6.55;;;2.70;;
16326;SDS011;34812;49.846;9.610;2023-06-19T11:42:51;3.10;;;2.80;;
16326;SDS011;34812;49.846;9.610;2023-06-19T11:47:55;5.00;;;3.08;;
16326;SDS011;34812;49.846;9.610;2023-06-19T11:52:57;2.60;;;2.38;;
16326;SDS011;34812;49.846;9.610;2023-06-19T11:58:00;3.30;;;3.00;;
16326;SDS011;34812;49.846;9.610;2023-06-19T12:03:03;4.60;;;2.55;;
16326;SDS011;34812;49.846;9.610;2023-06-19T12:08:06;2.83;;;2.53;;
16326;SDS011;34812;49.846;9.610;2023-06-19T12:13:08;3.25;;;2.88;;
16326;SDS011;34812;49.846;9.610;2023-06-19T12:18:12;3.15;;;2.67;;
16326;SDS011;34812;49.846;9.610;2023-06-19T12:23:14;3.00;;;2.80;;
16326;SDS011;34812;49.846;9.610;2023-06-19T12:28:17;4.10;;;3.60;;
16326;SDS011;34812;49.846;9.610;2023-06-19T12:33:20;2.90;;;2.70;;
16326;SDS011;34812;49.846;9.610;2023-06-19T12:38:22;3.13;;;2.60;;
16326;SDS011;34812;49.846;9.610;2023-06-19T12:43:25;2.75;;;2.55;;
16326;SDS011;34812;49.846;9.610;2023-06-19T12:48:28;5.13;;;3.22;;
16326;SDS011;34812;49.846;9.610;2023-06-19T12:53:30;3.42;;;3.13;;
16326;SDS011;34812;49.846;9.610;2023-06-19T12:58:32;3.92;;;2.80;;
16326;SDS011;34812;49.846;9.610;2023-06-19T13:03:36;2.70;;;2.50;;
16326;SDS011;34812;49.846;9.610;2023-06-19T13:08:38;3.95;;;2.78;;
16326;SDS011;34812;49.846;9.610;2023-06-19T13:13:40;2.35;;;2.15;;
16326;SDS011;34812;49.846;9.610;2023-06-19T13:18:44;3.13;;;2.83;;
16326;SDS011;34812;49.846;9.610;2023-06-19T13:23:46;2.83;;;2.63;;
16326;SDS011;34812;49.846;9.610;2023-06-19T13:28:49;2.97;;;2.70;;
16326;SDS011;34812;49.846;9.610;2023-06-19T13:33:53;3.22;;;2.80;;
16326;SDS011;34812;49.846;9.610;2023-06-19T13:38:55;2.85;;;2.42;;
16326;SDS011;34812;49.846;9.610;2023-06-19T13:43:57;2.80;;;2.60;;
16326;SDS011;34812;49.846;9.610;2023-06-19T13:49:01;2.97;;;2.63;;
16326;SDS011;34812;49.846;9.610;2023-06-19T13:54:03;4.35;;;3.00;;
16326;SDS011;34812;49.846;9.610;2023-06-19T13:59:05;3.22;;;2.92;;
16326;SDS011;34812;49.846;9.610;2023-06-19T14:04:10;4.05;;;3.15;;
16326;SDS011;34812;49.846;9.610;2023-06-19T14:09:12;3.53;;;3.20;;
16326;SDS011;34812;49.846;9.610;2023-06-19T14:14:14;5.05;;;3.30;;
16326;SDS011;34812;49.846;9.610;2023-06-19T14:19:18;2.95;;;2.72;;
16326;SDS011;34812;49.846;9.610;2023-06-19T14:24:20;3.80;;;3.40;;
16326;SDS011;34812;49.846;9.610;2023-06-19T14:29:23;3.45;;;3.15;;
16326;SDS011;34812;49.846;9.610;2023-06-19T14:34:27;3.50;;;3.20;;
16326;SDS011;34812;49.846;9.610;2023-06-19T14:39:29;4.85;;;3.47;;
16326;SDS011;34812;49.846;9.610;2023-06-19T14:44:31;4.47;;;3.50;;
16326;SDS011;34812;49.846;9.610;2023-06-19T14:49:35;3.05;;;2.75;;
16326;SDS011;34812;49.846;9.610;2023-06-19T14:54:37;3.97;;;3.28;;
16326;SDS011;34812;49.846;9.610;2023-06-19T14:59:39;3.60;;;2.72;;
16326;SDS011;34812;49.846;9.610;2023-06-19T15:04:43;4.30;;;3.00;;
16326;SDS011;34812;49.846;9.610;2023-06-19T15:09:45;3.53;;;3.20;;
16326;SDS011;34812;49.846;9.610;2023-06-19T15:14:47;2.78;;;2.58;;
16326;SDS011;34812;49.846;9.610;2023-06-19T15:19:51;3.50;;;2.85;;
16326;SDS011;34812;49.846;9.610;2023-06-19T15:24:53;2.72;;;2.53;;
16326;SDS011;34812;49.846;9.610;2023-06-19T15:29:55;3.15;;;2.38;;
16326;SDS011;34812;49.846;9.610;2023-06-19T15:34:59;2.83;;;2.05;;
16326;SDS011;34812;49.846;9.610;2023-06-19T15:40:01;2.42;;;2.17;;
16326;SDS011;34812;49.846;9.610;2023-06-19T15:45:04;2.20;;;2.00;;
16326;SDS011;34812;49.846;9.610;2023-06-19T15:50:09;2.45;;;2.25;;
16326;SDS011;34812;49.846;9.610;2023-06-19T15:55:11;2.38;;;2.00;;
16326;SDS011;34812;49.846;9.610;2023-06-19T16:00:13;1.52;;;1.42;;
16326;SDS011;34812;49.846;9.610;2023-06-19T16:05:18;2.17;;;1.95;;
16326;SDS011;34812;49.846;9.610;2023-06-19T16:10:20;1.80;;;1.70;;
16326;SDS011;34812;49.846;9.610;2023-06-19T16:15:22;2.65;;;1.80;;
16326;SDS011;34812;49.846;9.610;2023-06-19T16:20:29;2.53;;;2.33;;
16326;SDS011;34812;49.846;9.610;2023-06-19T16:25:31;3.17;;;2.30;;
16326;SDS011;34812;49.846;9.610;2023-06-19T16:30:33;1.85;;;1.73;;
16326;SDS011;34812;49.846;9.610;2023-06-19T16:35:37;2.33;;;1.98;;
16326;SDS011;34812;49.846;9.610;2023-06-19T16:40:39;2.50;;;2.05;;
16326;SDS011;34812;49.846;9.610;2023-06-19T16:45:41;3.22;;;2.40;;
16326;SDS011;34812;49.846;9.610;2023-06-19T16:50:46;2.97;;;2.20;;
16326;SDS011;34812;49.846;9.610;2023-06-19T16:55:48;2.70;;;2.47;;
16326;SDS011;34812;49.846;9.610;2023-06-19T17:00:55;2.28;;;2.03;;
16326;SDS011;34812;49.846;9.610;2023-06-19T17:05:59;3.63;;;2.53;;
16326;SDS011;34812;49.846;9.610;2023-06-19T17:11:01;2.42;;;1.92;;
16326;SDS011;34812;49.846;9.610;2023-06-19T17:16:03;3.05;;;2.30;;
16326;SDS011;34812;49.846;9.610;2023-06-19T17:21:07;1.95;;;1.75;;
16326;SDS011;34812;49.846;9.610;2023-06-19T17:26:09;2.97;;;2.10;;
16326;SDS011;34812;49.846;9.610;2023-06-19T17:31:11;4.05;;;2.42;;
16326;SDS011;34812;49.846;9.610;2023-06-19T17:36:15;2.72;;;2.30;;
16326;SDS011;34812;49.846;9.610;2023-06-19T17:41:17;3.22;;;2.08;;
16326;SDS011;34812;49.846;9.610;2023-06-19T17:46:19;2.08;;;1.90;;
16326;SDS011;34812;49.846;9.610;2023-06-19T17:51:22;2.20;;;1.73;;
16326;SDS011;34812;49.846;9.610;2023-06-19T17:56:25;2.08;;;1.88;;
16326;SDS011;34812;49.846;9.610;2023-06-19T18:01:27;2.50;;;2.30;;
16326;SDS011;34812;49.846;9.610;2023-06-19T18:06:30;2.42;;;2.20;;
16326;SDS011;34812;49.846;9.610;2023-06-19T18:11:32;2.63;;;2.30;;
16326;SDS011;34812;49.846;9.610;2023-06-19T18:16:34;3.30;;;2.35;;
16326;SDS011;34812;49.846;9.610;2023-06-19T18:21:38;2.33;;;2.13;;
16326;SDS011;34812;49.846;9.610;2023-06-19T18:26:40;3.22;;;2.35;;
16326;SDS011;34812;49.846;9.610;2023-06-19T18:31:42;3.65;;;2.53;;
16326;SDS011;34812;49.846;9.610;2023-06-19T18:36:46;4.28;;;2.72;;
16326;SDS011;34812;49.846;9.610;2023-06-19T18:41:48;2.95;;;2.65;;
16326;SDS011;34812;49.846;9.610;2023-06-19T18:46:51;3.50;;;2.85;;
16326;SDS011;34812;49.846;9.610;2023-06-19T18:51:54;3.33;;;2.45;;
16326;SDS011;34812;49.846;9.610;2023-06-19T18:56:56;2.17;;;1.98;;
16326;SDS011;34812;49.846;9.610;2023-06-19T19:01:58;2.67;;;2.47;;
16326;SDS011;34812;49.846;9.610;2023-06-19T19:07:02;5.32;;;2.55;;
16326;SDS011;34812;49.846;9.610;2023-06-19T19:12:04;3.97;;;2.83;;
16326;SDS011;34812;49.846;9.610;2023-06-19T19:17:06;2.75;;;2.38;;
16326;SDS011;34812;49.846;9.610;2023-06-19T19:22:10;4.28;;;2.65;;
16326;SDS011;34812;49.846;9.610;2023-06-19T19:27:12;4.00;;;2.70;;
16326;SDS011;34812;49.846;9.610;2023-06-19T19:32:14;3.90;;;2.75;;
16326;SDS011;34812;49.846;9.610;2023-06-19T19:37:18;3.10;;;2.80;;
16326;SDS011;34812;49.846;9.610;2023-06-19T19:42:20;3.28;;;3.00;;
16326;SDS011;34812;49.846;9.610;2023-06-19T19:47:22;5.22;;;3.08;;
16326;SDS011;34812;49.846;9.610;2023-06-19T19:52:26;3.03;;;2.67;;
16326;SDS011;34812;49.846;9.610;2023-06-19T19:57:28;3.03;;;2.72;;
16326;SDS011;34812;49.846;9.610;2023-06-19T20:02:30;3.72;;;3.00;;
16326;SDS011;34812;49.846;9.610;2023-06-19T20:07:33;3.80;;;3.15;;
16326;SDS011;34812;49.846;9.610;2023-06-19T20:12:35;3.50;;;3.20;;
16326;SDS011;34812;49.846;9.610;2023-06-19T20:17:38;3.30;;;3.00;;
16326;SDS011;34812;49.846;9.610;2023-06-19T20:22:41;3.03;;;2.75;;
16326;SDS011;34812;49.846;9.610;2023-06-19T20:27:43;6.72;;;3.65;;
16326;SDS011;34812;49.846;9.610;2023-06-19T20:32:45;8.68;;;4.60;;
16326;SDS011;34812;49.846;9.610;2023-06-19T20:37:49;4.07;;;3.17;;
16326;SDS011;34812;49.846;9.610;2023-06-19T20:42:51;5.25;;;3.00;;
16326;SDS011;34812;49.846;9.610;2023-06-19T20:47:53;3.97;;;3.13;;
16326;SDS011;34812;49.846;9.610;2023-06-19T20:52:56;4.30;;;3.33;;
16326;SDS011;34812;49.846;9.610;2023-06-19T20:57:58;4.70;;;3.58;;
16326;SDS011;34812;49.846;9.610;2023-06-19T21:03:04;3.03;;;2.80;;
16326;SDS011;34812;49.846;9.610;2023-06-19T21:08:07;5.30;;;2.95;;
16326;SDS011;34812;49.846;9.610;2023-06-19T21:13:09;3.65;;;3.30;;
16326;SDS011;34812;49.846;9.610;2023-06-19T21:18:11;4.47;;;3.65;;
16326;SDS011;34812;49.846;9.610;2023-06-19T21:23:16;5.57;;;3.50;;
16326;SDS011;34812;49.846;9.610;2023-06-19T21:28:18;3.67;;;3.20;;
16326;SDS011;34812;49.846;9.610;2023-06-19T21:33:20;6.28;;;3.50;;
16326;SDS011;34812;49.846;9.610;2023-06-19T21:38:25;8.00;;;3.63;;
16326;SDS011;34812;49.846;9.610;2023-06-19T21:43:29;5.45;;;3.60;;
16326;SDS011;34812;49.846;9.610;2023-06-19T21:48:31;3.85;;;3.40;;
16326;SDS011;34812;49.846;9.610;2023-06-19T21:53:35;4.55;;;3.47;;
16326;SDS011;34812;49.846;9.610;2023-06-19T21:58:38;3.83;;;3.45;;
16326;SDS011;34812;49.846;9.610;2023-06-19T22:03:40;4.15;;;3.50;;
16326;SDS011;34812;49.846;9.610;2023-06-19T22:08:44;5.15;;;4.13;;
16326;SDS011;34812;49.846;9.610;2023-06-19T22:13:46;4.63;;;4.05;;
16326;SDS011;34812;49.846;9.610;2023-06-19T22:18:48;5.32;;;4.22;;
16326;SDS011;34812;49.846;9.610;2023-06-19T22:23:52;4.78;;;4.35;;
16326;SDS011;34812;49.846;9.610;2023-06-19T22:28:54;4.72;;;4.07;;
16326;SDS011;34812;49.846;9.610;2023-06-19T22:33:56;6.70;;;4.63;;
16326;SDS011;34812;49.846;9.610;2023-06-19T22:39:00;6.57;;;4.63;;
16326;SDS011;34812;49.846;9.610;2023-06-19T22:44:02;5.57;;;4.78;;
16326;SDS011;34812;49.846;9.610;2023-06-19T22:49:05;5.18;;;4.63;;
16326;SDS011;34812;49.846;9.610;2023-06-19T22:54:08;9.10;;;5.10;;
16326;SDS011;34812;49.846;9.610;2023-06-19T22:59:10;4.97;;;4.43;;
16326;SDS011;34812;49.846;9.610;2023-06-19T23:04:12;5.57;;;4.55;;
16326;SDS011;34812;49.846;9.610;2023-06-19T23:09:16;5.10;;;4.60;;
16326;SDS011;34812;49.846;9.610;2023-06-19T23:14:19;5.93;;;4.57;;
16326;SDS011;34812;49.846;9.610;2023-06-19T23:19:21;5.45;;;4.60;;
16326;SDS011;34812;49.846;9.610;2023-06-19T23:24:25;8.88;;;5.10;;
16326;SDS011;34812;49.846;9.610;2023-06-19T23:29:28;5.80;;;4.38;;
16326;SDS011;34812;49.846;9.610;2023-06-19T23:34:32;7.20;;;4.63;;
16326;SDS011;34812;49.846;9.610;2023-06-19T23:39:36;4.38;;;3.95;;
16326;SDS011;34812;49.846;9.610;2023-06-19T23:44:38;5.15;;;4.65;;
16326;SDS011;34812;49.846;9.610;2023-06-19T23:49:40;6.75;;;4.72;;
16326;SDS011;34812;49.846;9.610;2023-06-19T23:54:44;5.78;;;4.70;;
16326;SDS011;34812;49.846;9.610;2023-06-19T23:59:47;5.03;;;4.50;;
